Pagrindinis puslapis
METAR-TAF:

METAR-TAF

Oro uostai :

Rørvik, Norvegija

platuma: 64-50N, ilguma: 011-09E, Aukštis: 4 m

Dabartinis oras

Ataskaita buvo paskelbta 11 minutes, ne 05:20 UTC
Vėjas 7 kt iš Vakarų
Temperatūra 11°C
Drėgmė 76%
Slėgis 1017 hPa
Matomumas 10 km arba daugiau
Išsisklaidę debesys ne aukštis 1600 ft
Išsisklaidę debesys ne aukštis 2700 ft

METAR: ENRM 220520Z 26007KT 9999 SCT016 SCT027 11/07 Q1017

Laikas: 07:31 (05:31 UTC)

Prognozė

Ataskaita buvo paskelbta 12 valandos ir 31 minutes, ne 17:00 UTC
Prognozė galioja nuo 21 metu 18 UTC su 21 metu 21 UTC
Vėjas 8 kt iš Vakarų/Pietvakarių
Matomumas 10 km arba daugiau
Išsisklaidę debesys ne aukštis 500 ft
Su prošvaistėmis ne aukštis 1000 ft
Laikinai
nuo 21 metu 18 UTC su 21 metu 19 UTC
Su prošvaistėmis ne aukštis 500 ft
Tapsmas
nuo 21 metu 19 UTC su 21 metu 21 UTC
Išsisklaidę debesys ne aukštis 1000 ft
Su prošvaistėmis ne aukštis 2000 ft

TAF: ENRM 211700Z 2118/2121 24008KT 9999 SCT005 BKN010 TEMPO 2118/2119 BKN005 BECMG 2119/2121 SCT010 BKN020

Orai ataskaitas ir orų prognozės (METAR, TAF).

turimą stotys yra geltonos ir raudonos taškus žemėlapyje.

Perkelti pele per norėdami pamatyti stoties vardą.

Tada spustelėkite, norėdami matyti oro stebėjimo ir prognozės.

Norėdami pakeisti žemėlapį: spustelėkite ant žalios mygtukų su juodo kryžiaus žemyn,; žalią mygtuką su brūkšneliu, jei norite nutolinti; arba žalių rodyklių gretimoms žemėlapius.


METAR-TAF: